Tisul, Russia
Current Conditions -  °F | °C
As of 4:30 AM on Friday 19 Dec 2014 (Local Time) from UNEE Reporting Station
Haze Haze  
Wind Chill:   Ceiling: 6600
Heat Index:   Visibility: 3mi
Dew Point:   Wind: 2mph
Humidity: 92%   Direction: 150°SSE
Pressure: 30.53"   Gusts: NA
Location:  55.76°N, 88.31°E
Report Text: UNEE 182130Z 15001MPS 5000 BR SCT013 OVC066 M16/M17 Q1034 NOSIGRMK QFE752 23451035
Loading
Personal Weather Stations






























Interactive Weather Map New forecast layout! Learn more

10-Day Weather Forecast

Advertisements
Track Severe Weather on mobile